Terminal Aerodrome Forecast
Issued by NWS Binghamton, NY

Home | Current Version | Previous Version | Text Only | Print | Product List | Glossary On
Versions: 1 2 3 4 5 6 7 8 9 10 11 12 13 14 15 16 17 18 19
000
FTUS41 KBGM 041138 AAB
TAFAVP
TAF AMD
KAVP 041138Z 0412/0512 32006KT P6SM BKN040
     FM041900 34006KT P6SM FEW040 SCT150
     FM042300 VRB03KT P6SM BKN150
     FM050600 14004KT 3SM -SN OVC040
     FM050800 15005KT 2SM -SN OVC015=

USA.gov is the U.S. government's official web portal to all federal, state and local government web resources and services.